sensor_id;sensor_type;location;lat;lon;timestamp;P1;durP1;ratioP1;P2;durP2;ratioP2
46282;SDS011;32017;43.700;11.820;2023-08-07T00:01:48;3.97;;;2.53;;
46282;SDS011;32017;43.700;11.820;2023-08-07T00:04:08;5.35;;;1.60;;
46282;SDS011;32017;43.700;11.820;2023-08-07T00:06:28;2.20;;;1.35;;
46282;SDS011;32017;43.700;11.820;2023-08-07T00:08:48;2.00;;;1.58;;
46282;SDS011;32017;43.700;11.820;2023-08-07T00:11:08;1.63;;;1.20;;
46282;SDS011;32017;43.700;11.820;2023-08-07T00:13:29;4.90;;;1.50;;
46282;SDS011;32017;43.700;11.820;2023-08-07T00:15:49;2.22;;;1.92;;
46282;SDS011;32017;43.700;11.820;2023-08-07T00:18:09;2.05;;;1.20;;
46282;SDS011;32017;43.700;11.820;2023-08-07T00:20:29;1.33;;;1.23;;
46282;SDS011;32017;43.700;11.820;2023-08-07T00:22:48;5.15;;;1.35;;
46282;SDS011;32017;43.700;11.820;2023-08-07T00:25:08;2.25;;;1.73;;
46282;SDS011;32017;43.700;11.820;2023-08-07T00:27:28;1.92;;;1.52;;
46282;SDS011;32017;43.700;11.820;2023-08-07T00:29:48;1.33;;;1.10;;
46282;SDS011;32017;43.700;11.820;2023-08-07T00:32:08;3.05;;;1.55;;
46282;SDS011;32017;43.700;11.820;2023-08-07T00:34:29;2.35;;;1.42;;
46282;SDS011;32017;43.700;11.820;2023-08-07T00:36:49;2.20;;;1.45;;
46282;SDS011;32017;43.700;11.820;2023-08-07T00:39:09;7.00;;;2.03;;
46282;SDS011;32017;43.700;11.820;2023-08-07T00:41:29;2.40;;;1.50;;
46282;SDS011;32017;43.700;11.820;2023-08-07T00:43:50;2.92;;;1.45;;
46282;SDS011;32017;43.700;11.820;2023-08-07T00:46:10;4.18;;;1.85;;
46282;SDS011;32017;43.700;11.820;2023-08-07T00:48:31;4.53;;;1.50;;
46282;SDS011;32017;43.700;11.820;2023-08-07T00:50:51;7.35;;;2.75;;
46282;SDS011;32017;43.700;11.820;2023-08-07T00:53:11;2.30;;;1.38;;
46282;SDS011;32017;43.700;11.820;2023-08-07T00:55:31;4.60;;;2.20;;
46282;SDS011;32017;43.700;11.820;2023-08-07T00:57:51;3.72;;;2.25;;
46282;SDS011;32017;43.700;11.820;2023-08-07T01:00:13;3.60;;;1.77;;
46282;SDS011;32017;43.700;11.820;2023-08-07T01:02:34;1.63;;;1.45;;
46282;SDS011;32017;43.700;11.820;2023-08-07T01:04:44;3.83;;;1.63;;
46282;SDS011;32017;43.700;11.820;2023-08-07T01:07:04;2.30;;;1.55;;
46282;SDS011;32017;43.700;11.820;2023-08-07T01:09:24;7.65;;;2.20;;
46282;SDS011;32017;43.700;11.820;2023-08-07T01:11:49;2.30;;;1.98;;
46282;SDS011;32017;43.700;11.820;2023-08-07T01:19:26;2.97;;;1.90;;
46282;SDS011;32017;43.700;11.820;2023-08-07T01:21:48;2.05;;;1.95;;
46282;SDS011;32017;43.700;11.820;2023-08-07T01:24:08;1.73;;;1.63;;
46282;SDS011;32017;43.700;11.820;2023-08-07T01:26:29;2.13;;;1.80;;
46282;SDS011;32017;43.700;11.820;2023-08-07T01:29:08;2.17;;;1.92;;
46282;SDS011;32017;43.700;11.820;2023-08-07T01:31:45;5.32;;;1.98;;
46282;SDS011;32017;43.700;11.820;2023-08-07T01:34:08;3.88;;;1.55;;
46282;SDS011;32017;43.700;11.820;2023-08-07T01:36:33;2.47;;;1.70;;
46282;SDS011;32017;43.700;11.820;2023-08-07T01:38:53;3.88;;;2.03;;
46282;SDS011;32017;43.700;11.820;2023-08-07T01:41:15;5.45;;;2.85;;
46282;SDS011;32017;43.700;11.820;2023-08-07T01:43:36;3.38;;;2.35;;
46282;SDS011;32017;43.700;11.820;2023-08-07T01:45:56;2.38;;;1.98;;
46282;SDS011;32017;43.700;11.820;2023-08-07T01:48:17;3.65;;;2.05;;
46282;SDS011;32017;43.700;11.820;2023-08-07T01:50:38;2.35;;;1.50;;
46282;SDS011;32017;43.700;11.820;2023-08-07T01:52:58;1.92;;;1.70;;
46282;SDS011;32017;43.700;11.820;2023-08-07T01:55:20;2.72;;;1.50;;
46282;SDS011;32017;43.700;11.820;2023-08-07T01:57:42;1.88;;;1.77;;
46282;SDS011;32017;43.700;11.820;2023-08-07T02:00:01;2.35;;;1.95;;
46282;SDS011;32017;43.700;11.820;2023-08-07T02:02:23;2.22;;;1.95;;
46282;SDS011;32017;43.700;11.820;2023-08-07T02:04:42;3.63;;;2.60;;
46282;SDS011;32017;43.700;11.820;2023-08-07T02:07:03;1.95;;;1.85;;
46282;SDS011;32017;43.700;11.820;2023-08-07T02:09:23;3.72;;;1.83;;
46282;SDS011;32017;43.700;11.820;2023-08-07T02:11:43;2.20;;;1.65;;
46282;SDS011;32017;43.700;11.820;2023-08-07T02:14:03;3.83;;;2.13;;
46282;SDS011;32017;43.700;11.820;2023-08-07T02:16:22;2.17;;;1.90;;
46282;SDS011;32017;43.700;11.820;2023-08-07T02:18:42;3.88;;;2.40;;
46282;SDS011;32017;43.700;11.820;2023-08-07T02:21:02;1.80;;;1.63;;
46282;SDS011;32017;43.700;11.820;2023-08-07T02:23:21;1.63;;;1.52;;
46282;SDS011;32017;43.700;11.820;2023-08-07T02:25:41;2.53;;;1.70;;
46282;SDS011;32017;43.700;11.820;2023-08-07T02:28:01;3.33;;;1.88;;
46282;SDS011;32017;43.700;11.820;2023-08-07T02:30:21;2.45;;;1.60;;
46282;SDS011;32017;43.700;11.820;2023-08-07T02:32:41;2.92;;;1.80;;
46282;SDS011;32017;43.700;11.820;2023-08-07T02:35:03;4.53;;;1.70;;
46282;SDS011;32017;43.700;11.820;2023-08-07T02:37:23;2.25;;;2.05;;
46282;SDS011;32017;43.700;11.820;2023-08-07T02:39:43;4.05;;;1.98;;
46282;SDS011;32017;43.700;11.820;2023-08-07T02:42:03;4.40;;;1.92;;
46282;SDS011;32017;43.700;11.820;2023-08-07T02:44:23;3.33;;;2.38;;
46282;SDS011;32017;43.700;11.820;2023-08-07T02:46:44;3.38;;;1.70;;
46282;SDS011;32017;43.700;11.820;2023-08-07T02:49:03;3.25;;;2.45;;
46282;SDS011;32017;43.700;11.820;2023-08-07T02:51:24;3.33;;;2.30;;
46282;SDS011;32017;43.700;11.820;2023-08-07T02:53:44;2.47;;;2.28;;
46282;SDS011;32017;43.700;11.820;2023-08-07T02:56:04;1.70;;;1.60;;
46282;SDS011;32017;43.700;11.820;2023-08-07T02:58:23;3.17;;;2.65;;
46282;SDS011;32017;43.700;11.820;2023-08-07T03:00:43;1.55;;;1.45;;
46282;SDS011;32017;43.700;11.820;2023-08-07T03:03:02;2.97;;;2.78;;
46282;SDS011;32017;43.700;11.820;2023-08-07T03:05:23;3.65;;;2.10;;
46282;SDS011;32017;43.700;11.820;2023-08-07T03:07:43;4.60;;;2.75;;
46282;SDS011;32017;43.700;11.820;2023-08-07T03:10:03;1.67;;;1.63;;
46282;SDS011;32017;43.700;11.820;2023-08-07T03:12:23;3.28;;;2.42;;
46282;SDS011;32017;43.700;11.820;2023-08-07T03:14:43;3.67;;;2.10;;
46282;SDS011;32017;43.700;11.820;2023-08-07T03:17:03;3.22;;;2.65;;
46282;SDS011;32017;43.700;11.820;2023-08-07T03:19:23;6.13;;;2.40;;
46282;SDS011;32017;43.700;11.820;2023-08-07T03:21:43;2.72;;;2.53;;
46282;SDS011;32017;43.700;11.820;2023-08-07T03:24:03;2.55;;;2.35;;
46282;SDS011;32017;43.700;11.820;2023-08-07T03:26:23;2.92;;;2.25;;
46282;SDS011;32017;43.700;11.820;2023-08-07T03:28:43;5.70;;;2.78;;
46282;SDS011;32017;43.700;11.820;2023-08-07T03:31:06;5.18;;;2.88;;
46282;SDS011;32017;43.700;11.820;2023-08-07T03:33:26;3.53;;;2.35;;
46282;SDS011;32017;43.700;11.820;2023-08-07T03:35:46;3.08;;;1.40;;
46282;SDS011;32017;43.700;11.820;2023-08-07T03:38:06;3.45;;;2.65;;
46282;SDS011;32017;43.700;11.820;2023-08-07T03:40:26;3.50;;;1.92;;
46282;SDS011;32017;43.700;11.820;2023-08-07T03:42:46;3.28;;;2.33;;
46282;SDS011;32017;43.700;11.820;2023-08-07T03:45:06;2.67;;;2.42;;
46282;SDS011;32017;43.700;11.820;2023-08-07T03:47:27;2.67;;;2.47;;
46282;SDS011;32017;43.700;11.820;2023-08-07T03:49:47;1.80;;;1.70;;
46282;SDS011;32017;43.700;11.820;2023-08-07T03:52:07;2.35;;;2.00;;
46282;SDS011;32017;43.700;11.820;2023-08-07T03:54:27;2.78;;;2.15;;
46282;SDS011;32017;43.700;11.820;2023-08-07T03:56:47;2.95;;;2.15;;
46282;SDS011;32017;43.700;11.820;2023-08-07T03:59:09;2.28;;;2.10;;
46282;SDS011;32017;43.700;11.820;2023-08-07T04:01:28;3.45;;;3.30;;
46282;SDS011;32017;43.700;11.820;2023-08-07T04:03:48;3.17;;;2.70;;
46282;SDS011;32017;43.700;11.820;2023-08-07T04:06:08;3.47;;;2.53;;
46282;SDS011;32017;43.700;11.820;2023-08-07T04:08:29;5.47;;;2.75;;
46282;SDS011;32017;43.700;11.820;2023-08-07T04:10:59;2.35;;;2.15;;
46282;SDS011;32017;43.700;11.820;2023-08-07T04:13:19;3.88;;;3.67;;
46282;SDS011;32017;43.700;11.820;2023-08-07T04:15:40;5.20;;;2.60;;
46282;SDS011;32017;43.700;11.820;2023-08-07T04:18:00;5.07;;;3.22;;
46282;SDS011;32017;43.700;11.820;2023-08-07T04:20:20;3.05;;;2.95;;
46282;SDS011;32017;43.700;11.820;2023-08-07T04:22:40;4.22;;;2.80;;
46282;SDS011;32017;43.700;11.820;2023-08-07T04:25:00;4.15;;;2.80;;
46282;SDS011;32017;43.700;11.820;2023-08-07T04:27:20;3.40;;;2.42;;
46282;SDS011;32017;43.700;11.820;2023-08-07T04:29:40;2.88;;;2.65;;
46282;SDS011;32017;43.700;11.820;2023-08-07T04:32:00;3.60;;;3.28;;
46282;SDS011;32017;43.700;11.820;2023-08-07T04:34:19;3.05;;;2.85;;
46282;SDS011;32017;43.700;11.820;2023-08-07T04:36:40;2.92;;;2.58;;
46282;SDS011;32017;43.700;11.820;2023-08-07T04:39:00;3.47;;;3.15;;
46282;SDS011;32017;43.700;11.820;2023-08-07T04:41:20;2.67;;;2.58;;
46282;SDS011;32017;43.700;11.820;2023-08-07T04:43:41;6.82;;;2.47;;
46282;SDS011;32017;43.700;11.820;2023-08-07T04:46:02;3.90;;;3.45;;
46282;SDS011;32017;43.700;11.820;2023-08-07T04:48:23;9.18;;;2.60;;
46282;SDS011;32017;43.700;11.820;2023-08-07T04:50:44;4.80;;;3.58;;
46282;SDS011;32017;43.700;11.820;2023-08-07T04:53:04;3.85;;;2.40;;
46282;SDS011;32017;43.700;11.820;2023-08-07T04:55:25;3.58;;;2.95;;
46282;SDS011;32017;43.700;11.820;2023-08-07T04:57:45;4.82;;;4.53;;
46282;SDS011;32017;43.700;11.820;2023-08-07T05:00:06;2.42;;;2.17;;
46282;SDS011;32017;43.700;11.820;2023-08-07T05:02:27;2.10;;;1.90;;
46282;SDS011;32017;43.700;11.820;2023-08-07T05:04:47;3.80;;;3.15;;
46282;SDS011;32017;43.700;11.820;2023-08-07T05:07:07;4.93;;;2.33;;
46282;SDS011;32017;43.700;11.820;2023-08-07T05:09:27;2.92;;;2.75;;
46282;SDS011;32017;43.700;11.820;2023-08-07T05:11:47;2.35;;;2.15;;
46282;SDS011;32017;43.700;11.820;2023-08-07T05:14:08;5.07;;;2.78;;
46282;SDS011;32017;43.700;11.820;2023-08-07T05:16:28;4.53;;;2.70;;
46282;SDS011;32017;43.700;11.820;2023-08-07T05:18:48;3.35;;;2.65;;
46282;SDS011;32017;43.700;11.820;2023-08-07T05:21:09;3.90;;;3.60;;
46282;SDS011;32017;43.700;11.820;2023-08-07T05:23:30;10.90;;;3.15;;
46282;SDS011;32017;43.700;11.820;2023-08-07T05:25:49;3.03;;;2.92;;
46282;SDS011;32017;43.700;11.820;2023-08-07T05:28:09;3.92;;;3.72;;
46282;SDS011;32017;43.700;11.820;2023-08-07T05:30:29;4.13;;;3.70;;
46282;SDS011;32017;43.700;11.820;2023-08-07T05:32:48;3.47;;;3.20;;
46282;SDS011;32017;43.700;11.820;2023-08-07T05:35:09;3.28;;;3.08;;
46282;SDS011;32017;43.700;11.820;2023-08-07T05:37:29;4.68;;;3.05;;
46282;SDS011;32017;43.700;11.820;2023-08-07T05:39:50;4.10;;;3.25;;
46282;SDS011;32017;43.700;11.820;2023-08-07T05:42:10;5.15;;;3.13;;
46282;SDS011;32017;43.700;11.820;2023-08-07T05:44:31;3.13;;;2.78;;
46282;SDS011;32017;43.700;11.820;2023-08-07T05:46:51;3.13;;;2.83;;
46282;SDS011;32017;43.700;11.820;2023-08-07T05:49:11;4.13;;;3.88;;
46282;SDS011;32017;43.700;11.820;2023-08-07T05:51:31;5.65;;;3.63;;
46282;SDS011;32017;43.700;11.820;2023-08-07T05:53:51;5.68;;;2.90;;
46282;SDS011;32017;43.700;11.820;2023-08-07T05:56:11;3.05;;;2.95;;
46282;SDS011;32017;43.700;11.820;2023-08-07T05:58:31;2.78;;;2.67;;
46282;SDS011;32017;43.700;11.820;2023-08-07T06:00:51;3.70;;;2.97;;
46282;SDS011;32017;43.700;11.820;2023-08-07T06:03:11;5.80;;;2.80;;
46282;SDS011;32017;43.700;11.820;2023-08-07T06:05:33;3.78;;;3.40;;
46282;SDS011;32017;43.700;11.820;2023-08-07T06:07:53;5.00;;;3.08;;
46282;SDS011;32017;43.700;11.820;2023-08-07T06:10:13;3.28;;;2.63;;
46282;SDS011;32017;43.700;11.820;2023-08-07T06:12:33;5.53;;;2.67;;
46282;SDS011;32017;43.700;11.820;2023-08-07T06:14:53;3.15;;;2.95;;
46282;SDS011;32017;43.700;11.820;2023-08-07T06:17:13;3.78;;;2.35;;
46282;SDS011;32017;43.700;11.820;2023-08-07T06:19:33;2.97;;;2.78;;
46282;SDS011;32017;43.700;11.820;2023-08-07T06:21:53;2.95;;;1.58;;
46282;SDS011;32017;43.700;11.820;2023-08-07T06:24:13;2.15;;;2.03;;
46282;SDS011;32017;43.700;11.820;2023-08-07T06:26:33;2.25;;;1.73;;
46282;SDS011;32017;43.700;11.820;2023-08-07T06:28:53;6.05;;;2.83;;
46282;SDS011;32017;43.700;11.820;2023-08-07T06:31:13;4.72;;;1.88;;
46282;SDS011;32017;43.700;11.820;2023-08-07T06:33:33;3.83;;;1.98;;
46282;SDS011;32017;43.700;11.820;2023-08-07T06:35:53;10.15;;;2.33;;
46282;SDS011;32017;43.700;11.820;2023-08-07T06:38:13;3.63;;;2.25;;
46282;SDS011;32017;43.700;11.820;2023-08-07T06:40:34;6.60;;;2.40;;
46282;SDS011;32017;43.700;11.820;2023-08-07T06:42:54;3.63;;;1.60;;
46282;SDS011;32017;43.700;11.820;2023-08-07T06:45:14;5.28;;;1.73;;
46282;SDS011;32017;43.700;11.820;2023-08-07T06:47:34;3.20;;;2.08;;
46282;SDS011;32017;43.700;11.820;2023-08-07T06:49:54;5.07;;;1.85;;
46282;SDS011;32017;43.700;11.820;2023-08-07T06:52:13;2.85;;;2.00;;
46282;SDS011;32017;43.700;11.820;2023-08-07T06:54:34;2.33;;;2.13;;
46282;SDS011;32017;43.700;11.820;2023-08-07T06:56:53;4.10;;;1.90;;
46282;SDS011;32017;43.700;11.820;2023-08-07T06:59:14;2.50;;;2.05;;
46282;SDS011;32017;43.700;11.820;2023-08-07T07:01:33;4.55;;;2.33;;
46282;SDS011;32017;43.700;11.820;2023-08-07T07:03:53;2.08;;;1.58;;
46282;SDS011;32017;43.700;11.820;2023-08-07T07:06:13;3.28;;;2.13;;
46282;SDS011;32017;43.700;11.820;2023-08-07T07:08:33;1.63;;;1.42;;
46282;SDS011;32017;43.700;11.820;2023-08-07T07:10:53;1.50;;;1.25;;
46282;SDS011;32017;43.700;11.820;2023-08-07T07:13:13;11.50;;;3.22;;
46282;SDS011;32017;43.700;11.820;2023-08-07T07:15:33;3.80;;;1.60;;
46282;SDS011;32017;43.700;11.820;2023-08-07T07:17:52;4.63;;;1.80;;
46282;SDS011;32017;43.700;11.820;2023-08-07T07:20:12;2.67;;;1.75;;
46282;SDS011;32017;43.700;11.820;2023-08-07T07:22:32;6.93;;;2.05;;
46282;SDS011;32017;43.700;11.820;2023-08-07T07:24:52;1.65;;;1.40;;
46282;SDS011;32017;43.700;11.820;2023-08-07T07:27:12;1.38;;;1.35;;
46282;SDS011;32017;43.700;11.820;2023-08-07T07:29:32;2.45;;;1.80;;
46282;SDS011;32017;43.700;11.820;2023-08-07T07:31:51;3.10;;;1.35;;
46282;SDS011;32017;43.700;11.820;2023-08-07T07:34:13;1.30;;;1.13;;
46282;SDS011;32017;43.700;11.820;2023-08-07T07:36:33;1.70;;;1.25;;
46282;SDS011;32017;43.700;11.820;2023-08-07T07:38:53;9.30;;;2.05;;
46282;SDS011;32017;43.700;11.820;2023-08-07T07:41:16;2.00;;;1.35;;
46282;SDS011;32017;43.700;11.820;2023-08-07T07:43:36;3.95;;;1.48;;
46282;SDS011;32017;43.700;11.820;2023-08-07T07:45:57;6.07;;;1.23;;
46282;SDS011;32017;43.700;11.820;2023-08-07T07:48:17;6.70;;;1.90;;
46282;SDS011;32017;43.700;11.820;2023-08-07T07:50:37;4.20;;;1.10;;
46282;SDS011;32017;43.700;11.820;2023-08-07T07:52:57;2.15;;;1.13;;
46282;SDS011;32017;43.700;11.820;2023-08-07T07:55:17;1.70;;;1.00;;
46282;SDS011;32017;43.700;11.820;2023-08-07T07:57:37;2.75;;;1.40;;
46282;SDS011;32017;43.700;11.820;2023-08-07T07:59:57;4.20;;;2.38;;
46282;SDS011;32017;43.700;11.820;2023-08-07T08:02:17;3.15;;;1.20;;
46282;SDS011;32017;43.700;11.820;2023-08-07T08:04:36;2.92;;;1.25;;
46282;SDS011;32017;43.700;11.820;2023-08-07T08:06:57;3.42;;;1.00;;
46282;SDS011;32017;43.700;11.820;2023-08-07T08:09:17;2.00;;;1.55;;
46282;SDS011;32017;43.700;11.820;2023-08-07T08:11:36;2.90;;;1.00;;
46282;SDS011;32017;43.700;11.820;2023-08-07T08:13:56;2.38;;;1.27;;
46282;SDS011;32017;43.700;11.820;2023-08-07T08:16:16;1.25;;;0.90;;
46282;SDS011;32017;43.700;11.820;2023-08-07T08:18:35;2.15;;;1.10;;
46282;SDS011;32017;43.700;11.820;2023-08-07T08:20:55;1.60;;;1.13;;
46282;SDS011;32017;43.700;11.820;2023-08-07T08:23:15;2.08;;;1.20;;
46282;SDS011;32017;43.700;11.820;2023-08-07T08:25:35;4.00;;;1.00;;
46282;SDS011;32017;43.700;11.820;2023-08-07T08:27:54;3.65;;;1.00;;
46282;SDS011;32017;43.700;11.820;2023-08-07T08:30:14;3.13;;;0.90;;
46282;SDS011;32017;43.700;11.820;2023-08-07T08:32:35;4.43;;;0.93;;
46282;SDS011;32017;43.700;11.820;2023-08-07T08:34:55;9.15;;;2.10;;
46282;SDS011;32017;43.700;11.820;2023-08-07T08:37:14;2.97;;;0.90;;
46282;SDS011;32017;43.700;11.820;2023-08-07T08:39:34;1.58;;;0.88;;
46282;SDS011;32017;43.700;11.820;2023-08-07T08:41:54;2.65;;;1.10;;
46282;SDS011;32017;43.700;11.820;2023-08-07T08:44:15;3.08;;;1.13;;
46282;SDS011;32017;43.700;11.820;2023-08-07T08:46:39;4.15;;;1.02;;
46282;SDS011;32017;43.700;11.820;2023-08-07T08:49:01;2.33;;;0.80;;
46282;SDS011;32017;43.700;11.820;2023-08-07T08:51:24;1.83;;;0.90;;
46282;SDS011;32017;43.700;11.820;2023-08-07T08:53:47;1.95;;;0.98;;
46282;SDS011;32017;43.700;11.820;2023-08-07T08:56:08;0.70;;;0.70;;
46282;SDS011;32017;43.700;11.820;2023-08-07T08:58:29;0.70;;;0.70;;
46282;SDS011;32017;43.700;11.820;2023-08-07T09:00:49;3.33;;;0.70;;
46282;SDS011;32017;43.700;11.820;2023-08-07T09:03:09;1.08;;;0.70;;
46282;SDS011;32017;43.700;11.820;2023-08-07T09:05:30;2.45;;;0.70;;
46282;SDS011;32017;43.700;11.820;2023-08-07T09:07:51;0.73;;;0.73;;
46282;SDS011;32017;43.700;11.820;2023-08-07T09:10:11;0.65;;;0.60;;
46282;SDS011;32017;43.700;11.820;2023-08-07T09:12:32;0.70;;;0.70;;
46282;SDS011;32017;43.700;11.820;2023-08-07T09:14:54;1.42;;;0.52;;
46282;SDS011;32017;43.700;11.820;2023-08-07T09:17:17;1.73;;;0.65;;
46282;SDS011;32017;43.700;11.820;2023-08-07T09:19:38;0.60;;;0.60;;
46282;SDS011;32017;43.700;11.820;2023-08-07T09:21:59;0.75;;;0.60;;
46282;SDS011;32017;43.700;11.820;2023-08-07T09:24:19;1.63;;;0.60;;
46282;SDS011;32017;43.700;11.820;2023-08-07T09:26:42;0.60;;;0.60;;
46282;SDS011;32017;43.700;11.820;2023-08-07T09:29:03;0.50;;;0.50;;
46282;SDS011;32017;43.700;11.820;2023-08-07T09:31:23;1.05;;;0.60;;
46282;SDS011;32017;43.700;11.820;2023-08-07T09:33:46;0.93;;;0.60;;
46282;SDS011;32017;43.700;11.820;2023-08-07T09:36:07;0.82;;;0.50;;
46282;SDS011;32017;43.700;11.820;2023-08-07T09:38:30;0.95;;;0.70;;
46282;SDS011;32017;43.700;11.820;2023-08-07T09:40:52;0.60;;;0.60;;
46282;SDS011;32017;43.700;11.820;2023-08-07T09:43:12;1.17;;;0.50;;
46282;SDS011;32017;43.700;11.820;2023-08-07T09:45:41;1.00;;;0.50;;
46282;SDS011;32017;43.700;11.820;2023-08-07T09:48:03;0.50;;;0.50;;
46282;SDS011;32017;43.700;11.820;2023-08-07T09:50:25;0.73;;;0.50;;
46282;SDS011;32017;43.700;11.820;2023-08-07T09:52:48;0.50;;;0.50;;
46282;SDS011;32017;43.700;11.820;2023-08-07T09:55:08;0.50;;;0.50;;
46282;SDS011;32017;43.700;11.820;2023-08-07T09:57:28;0.55;;;0.50;;
46282;SDS011;32017;43.700;11.820;2023-08-07T09:59:49;0.50;;;0.50;;
46282;SDS011;32017;43.700;11.820;2023-08-07T10:02:10;0.50;;;0.50;;
46282;SDS011;32017;43.700;11.820;2023-08-07T10:04:31;0.52;;;0.52;;
46282;SDS011;32017;43.700;11.820;2023-08-07T10:06:50;0.73;;;0.60;;
46282;SDS011;32017;43.700;11.820;2023-08-07T10:09:10;1.48;;;0.50;;
46282;SDS011;32017;43.700;11.820;2023-08-07T10:11:31;0.50;;;0.50;;
46282;SDS011;32017;43.700;11.820;2023-08-07T10:13:51;0.40;;;0.40;;
46282;SDS011;32017;43.700;11.820;2023-08-07T10:16:11;0.77;;;0.77;;
46282;SDS011;32017;43.700;11.820;2023-08-07T10:18:32;0.40;;;0.40;;
46282;SDS011;32017;43.700;11.820;2023-08-07T10:20:53;0.70;;;0.50;;
46282;SDS011;32017;43.700;11.820;2023-08-07T10:23:13;0.50;;;0.50;;
46282;SDS011;32017;43.700;11.820;2023-08-07T10:25:37;0.50;;;0.50;;
46282;SDS011;32017;43.700;11.820;2023-08-07T10:28:01;1.40;;;0.50;;
46282;SDS011;32017;43.700;11.820;2023-08-07T10:30:23;0.47;;;0.47;;
46282;SDS011;32017;43.700;11.820;2023-08-07T10:32:44;0.50;;;0.50;;
46282;SDS011;32017;43.700;11.820;2023-08-07T10:35:05;0.40;;;0.40;;
46282;SDS011;32017;43.700;11.820;2023-08-07T10:40:04;1.08;;;0.50;;
46282;SDS011;32017;43.700;11.820;2023-08-07T10:42:27;0.50;;;0.50;;
46282;SDS011;32017;43.700;11.820;2023-08-07T10:44:50;1.00;;;0.52;;
46282;SDS011;32017;43.700;11.820;2023-08-07T10:47:10;1.52;;;0.50;;
46282;SDS011;32017;43.700;11.820;2023-08-07T10:49:31;1.95;;;0.60;;
46282;SDS011;32017;43.700;11.820;2023-08-07T10:51:52;0.52;;;0.50;;
46282;SDS011;32017;43.700;11.820;2023-08-07T10:54:12;1.05;;;0.50;;
46282;SDS011;32017;43.700;11.820;2023-08-07T10:56:32;1.85;;;0.50;;
46282;SDS011;32017;43.700;11.820;2023-08-07T10:58:54;1.85;;;0.75;;
46282;SDS011;32017;43.700;11.820;2023-08-07T11:03:42;0.50;;;0.50;;
46282;SDS011;32017;43.700;11.820;2023-08-07T11:06:02;0.40;;;0.40;;
46282;SDS011;32017;43.700;11.820;2023-08-07T11:08:23;0.40;;;0.40;;
46282;SDS011;32017;43.700;11.820;2023-08-07T11:10:43;0.40;;;0.40;;
46282;SDS011;32017;43.700;11.820;2023-08-07T11:13:02;0.47;;;0.40;;
46282;SDS011;32017;43.700;11.820;2023-08-07T11:15:22;1.17;;;0.40;;
46282;SDS011;32017;43.700;11.820;2023-08-07T11:17:43;0.40;;;0.40;;
46282;SDS011;32017;43.700;11.820;2023-08-07T11:20:05;0.40;;;0.40;;
46282;SDS011;32017;43.700;11.820;2023-08-07T11:22:26;1.23;;;0.40;;
46282;SDS011;32017;43.700;11.820;2023-08-07T11:24:49;0.40;;;0.40;;
46282;SDS011;32017;43.700;11.820;2023-08-07T11:27:10;0.38;;;0.38;;
46282;SDS011;32017;43.700;11.820;2023-08-07T11:29:29;0.32;;;0.32;;
46282;SDS011;32017;43.700;11.820;2023-08-07T11:31:50;0.40;;;0.40;;
46282;SDS011;32017;43.700;11.820;2023-08-07T11:34:10;0.40;;;0.40;;
46282;SDS011;32017;43.700;11.820;2023-08-07T11:36:30;0.40;;;0.40;;
46282;SDS011;32017;43.700;11.820;2023-08-07T11:38:51;1.42;;;0.40;;
46282;SDS011;32017;43.700;11.820;2023-08-07T11:41:12;0.47;;;0.40;;
46282;SDS011;32017;43.700;11.820;2023-08-07T11:43:34;0.40;;;0.40;;
46282;SDS011;32017;43.700;11.820;2023-08-07T11:45:54;0.47;;;0.47;;
46282;SDS011;32017;43.700;11.820;2023-08-07T11:48:16;0.45;;;0.45;;
46282;SDS011;32017;43.700;11.820;2023-08-07T11:50:35;0.47;;;0.47;;
46282;SDS011;32017;43.700;11.820;2023-08-07T11:52:57;0.40;;;0.40;;
46282;SDS011;32017;43.700;11.820;2023-08-07T11:55:20;0.77;;;0.40;;
46282;SDS011;32017;43.700;11.820;2023-08-07T11:57:40;0.50;;;0.50;;
46282;SDS011;32017;43.700;11.820;2023-08-07T12:00:02;0.40;;;0.40;;
46282;SDS011;32017;43.700;11.820;2023-08-07T12:02:28;0.40;;;0.40;;
46282;SDS011;32017;43.700;11.820;2023-08-07T12:04:49;0.40;;;0.40;;
46282;SDS011;32017;43.700;11.820;2023-08-07T12:07:08;0.50;;;0.50;;
46282;SDS011;32017;43.700;11.820;2023-08-07T12:09:30;0.40;;;0.40;;
46282;SDS011;32017;43.700;11.820;2023-08-07T12:11:54;0.50;;;0.50;;
46282;SDS011;32017;43.700;11.820;2023-08-07T12:14:16;0.50;;;0.50;;
46282;SDS011;32017;43.700;11.820;2023-08-07T12:16:36;0.50;;;0.50;;
46282;SDS011;32017;43.700;11.820;2023-08-07T12:18:56;0.47;;;0.47;;
46282;SDS011;32017;43.700;11.820;2023-08-07T12:21:22;0.50;;;0.50;;
46282;SDS011;32017;43.700;11.820;2023-08-07T12:23:43;0.40;;;0.40;;
46282;SDS011;32017;43.700;11.820;2023-08-07T12:26:04;0.40;;;0.40;;
46282;SDS011;32017;43.700;11.820;2023-08-07T12:28:26;1.48;;;0.40;;
46282;SDS011;32017;43.700;11.820;2023-08-07T12:30:46;0.50;;;0.50;;
46282;SDS011;32017;43.700;11.820;2023-08-07T12:33:06;0.50;;;0.50;;
46282;SDS011;32017;43.700;11.820;2023-08-07T12:35:26;2.85;;;0.43;;
46282;SDS011;32017;43.700;11.820;2023-08-07T12:37:46;0.40;;;0.40;;
46282;SDS011;32017;43.700;11.820;2023-08-07T12:40:05;0.40;;;0.40;;
46282;SDS011;32017;43.700;11.820;2023-08-07T12:42:29;0.40;;;0.40;;
46282;SDS011;32017;43.700;11.820;2023-08-07T12:44:49;0.40;;;0.40;;
46282;SDS011;32017;43.700;11.820;2023-08-07T12:47:10;0.95;;;0.50;;
46282;SDS011;32017;43.700;11.820;2023-08-07T12:49:29;0.45;;;0.45;;
46282;SDS011;32017;43.700;11.820;2023-08-07T12:51:49;0.77;;;0.50;;
46282;SDS011;32017;43.700;11.820;2023-08-07T12:54:09;0.50;;;0.50;;
46282;SDS011;32017;43.700;11.820;2023-08-07T12:56:29;0.50;;;0.50;;
46282;SDS011;32017;43.700;11.820;2023-08-07T12:58:49;0.77;;;0.47;;
46282;SDS011;32017;43.700;11.820;2023-08-07T13:01:09;1.33;;;0.40;;
46282;SDS011;32017;43.700;11.820;2023-08-07T13:03:29;0.47;;;0.47;;
46282;SDS011;32017;43.700;11.820;2023-08-07T13:05:49;0.93;;;0.50;;
46282;SDS011;32017;43.700;11.820;2023-08-07T13:08:09;0.60;;;0.50;;
46282;SDS011;32017;43.700;11.820;2023-08-07T13:10:29;0.40;;;0.40;;
46282;SDS011;32017;43.700;11.820;2023-08-07T13:12:50;1.10;;;0.50;;
46282;SDS011;32017;43.700;11.820;2023-08-07T13:15:11;0.45;;;0.45;;
46282;SDS011;32017;43.700;11.820;2023-08-07T13:17:32;0.57;;;0.50;;
46282;SDS011;32017;43.700;11.820;2023-08-07T13:19:53;0.50;;;0.50;;
46282;SDS011;32017;43.700;11.820;2023-08-07T13:22:12;0.40;;;0.40;;
46282;SDS011;32017;43.700;11.820;2023-08-07T13:24:31;0.40;;;0.40;;
46282;SDS011;32017;43.700;11.820;2023-08-07T13:26:52;0.40;;;0.40;;
46282;SDS011;32017;43.700;11.820;2023-08-07T13:29:12;0.50;;;0.50;;
46282;SDS011;32017;43.700;11.820;2023-08-07T13:31:32;0.40;;;0.40;;
46282;SDS011;32017;43.700;11.820;2023-08-07T13:33:51;0.40;;;0.40;;
46282;SDS011;32017;43.700;11.820;2023-08-07T13:36:11;0.50;;;0.50;;
46282;SDS011;32017;43.700;11.820;2023-08-07T13:38:31;0.50;;;0.50;;
46282;SDS011;32017;43.700;11.820;2023-08-07T13:40:51;0.50;;;0.50;;
46282;SDS011;32017;43.700;11.820;2023-08-07T13:43:11;2.30;;;0.50;;
46282;SDS011;32017;43.700;11.820;2023-08-07T13:45:31;0.68;;;0.57;;
46282;SDS011;32017;43.700;11.820;2023-08-07T13:47:51;0.40;;;0.40;;
46282;SDS011;32017;43.700;11.820;2023-08-07T13:50:11;0.40;;;0.40;;
46282;SDS011;32017;43.700;11.820;2023-08-07T13:52:32;0.70;;;0.50;;
46282;SDS011;32017;43.700;11.820;2023-08-07T13:54:55;0.40;;;0.40;;
46282;SDS011;32017;43.700;11.820;2023-08-07T13:57:15;0.40;;;0.40;;
46282;SDS011;32017;43.700;11.820;2023-08-07T13:59:35;0.40;;;0.40;;
46282;SDS011;32017;43.700;11.820;2023-08-07T14:01:55;0.40;;;0.40;;
46282;SDS011;32017;43.700;11.820;2023-08-07T14:04:15;0.40;;;0.40;;